sensor_id;sensor_type;location;lat;lon;timestamp;P1;durP1;ratioP1;P2;durP2;ratioP2
55776;SDS011;54079;44.540;18.784;2022-12-31T00:01:53;4.22;;;2.97;;
55776;SDS011;54079;44.540;18.784;2022-12-31T00:04:19;3.83;;;2.42;;
55776;SDS011;54079;44.540;18.784;2022-12-31T00:06:45;6.85;;;2.95;;
55776;SDS011;54079;44.540;18.784;2022-12-31T00:09:11;4.63;;;2.70;;
55776;SDS011;54079;44.540;18.784;2022-12-31T00:11:37;5.28;;;3.28;;
55776;SDS011;54079;44.540;18.784;2022-12-31T00:14:04;3.00;;;2.67;;
55776;SDS011;54079;44.540;18.784;2022-12-31T00:16:32;5.57;;;2.72;;
55776;SDS011;54079;44.540;18.784;2022-12-31T00:19:03;3.78;;;2.85;;
55776;SDS011;54079;44.540;18.784;2022-12-31T00:21:31;3.65;;;2.65;;
55776;SDS011;54079;44.540;18.784;2022-12-31T00:23:58;3.92;;;2.72;;
55776;SDS011;54079;44.540;18.784;2022-12-31T00:26:26;2.92;;;2.50;;
55776;SDS011;54079;44.540;18.784;2022-12-31T00:28:54;4.45;;;3.33;;
55776;SDS011;54079;44.540;18.784;2022-12-31T00:31:22;4.05;;;2.65;;
55776;SDS011;54079;44.540;18.784;2022-12-31T00:33:49;4.35;;;2.50;;
55776;SDS011;54079;44.540;18.784;2022-12-31T00:36:23;4.70;;;2.90;;
55776;SDS011;54079;44.540;18.784;2022-12-31T00:38:57;3.22;;;2.85;;
55776;SDS011;54079;44.540;18.784;2022-12-31T00:41:24;4.70;;;3.50;;
55776;SDS011;54079;44.540;18.784;2022-12-31T00:43:51;5.65;;;3.05;;
55776;SDS011;54079;44.540;18.784;2022-12-31T00:46:17;7.22;;;3.22;;
55776;SDS011;54079;44.540;18.784;2022-12-31T00:48:44;3.25;;;2.63;;
55776;SDS011;54079;44.540;18.784;2022-12-31T00:51:11;4.05;;;2.55;;
55776;SDS011;54079;44.540;18.784;2022-12-31T00:53:39;4.35;;;3.47;;
55776;SDS011;54079;44.540;18.784;2022-12-31T00:56:09;3.22;;;2.33;;
55776;SDS011;54079;44.540;18.784;2022-12-31T00:58:37;4.63;;;2.97;;
55776;SDS011;54079;44.540;18.784;2022-12-31T01:01:14;3.55;;;2.72;;
55776;SDS011;54079;44.540;18.784;2022-12-31T01:03:40;4.22;;;2.83;;
55776;SDS011;54079;44.540;18.784;2022-12-31T01:06:06;3.15;;;1.90;;
55776;SDS011;54079;44.540;18.784;2022-12-31T01:08:33;4.30;;;2.55;;
55776;SDS011;54079;44.540;18.784;2022-12-31T01:11:00;4.45;;;2.67;;
55776;SDS011;54079;44.540;18.784;2022-12-31T01:13:53;3.75;;;2.40;;
55776;SDS011;54079;44.540;18.784;2022-12-31T01:16:23;3.03;;;2.28;;
55776;SDS011;54079;44.540;18.784;2022-12-31T01:18:50;5.05;;;2.63;;
55776;SDS011;54079;44.540;18.784;2022-12-31T01:21:17;2.97;;;2.42;;
55776;SDS011;54079;44.540;18.784;2022-12-31T01:23:43;3.83;;;2.75;;
55776;SDS011;54079;44.540;18.784;2022-12-31T01:26:10;5.57;;;2.78;;
55776;SDS011;54079;44.540;18.784;2022-12-31T01:28:38;3.50;;;2.55;;
55776;SDS011;54079;44.540;18.784;2022-12-31T01:31:05;2.63;;;2.28;;
55776;SDS011;54079;44.540;18.784;2022-12-31T01:33:34;3.20;;;2.42;;
55776;SDS011;54079;44.540;18.784;2022-12-31T01:36:08;3.33;;;2.25;;
55776;SDS011;54079;44.540;18.784;2022-12-31T01:38:36;3.33;;;2.35;;
55776;SDS011;54079;44.540;18.784;2022-12-31T01:41:03;4.57;;;2.13;;
55776;SDS011;54079;44.540;18.784;2022-12-31T01:43:46;2.65;;;2.22;;
55776;SDS011;54079;44.540;18.784;2022-12-31T01:46:22;3.35;;;2.33;;
55776;SDS011;54079;44.540;18.784;2022-12-31T01:48:59;4.38;;;2.28;;
55776;SDS011;54079;44.540;18.784;2022-12-31T01:51:44;3.15;;;2.55;;
55776;SDS011;54079;44.540;18.784;2022-12-31T01:54:14;3.08;;;2.63;;
55776;SDS011;54079;44.540;18.784;2022-12-31T01:56:42;2.95;;;2.00;;
55776;SDS011;54079;44.540;18.784;2022-12-31T01:59:11;3.60;;;2.30;;
55776;SDS011;54079;44.540;18.784;2022-12-31T02:01:38;5.15;;;2.72;;
55776;SDS011;54079;44.540;18.784;2022-12-31T02:04:06;2.33;;;2.10;;
55776;SDS011;54079;44.540;18.784;2022-12-31T02:06:41;3.67;;;2.88;;
55776;SDS011;54079;44.540;18.784;2022-12-31T02:09:26;3.27;;;2.47;;
55776;SDS011;54079;44.540;18.784;2022-12-31T02:11:52;3.92;;;2.50;;
55776;SDS011;54079;44.540;18.784;2022-12-31T02:14:21;4.30;;;2.75;;
55776;SDS011;54079;44.540;18.784;2022-12-31T02:17:21;4.05;;;2.10;;
55776;SDS011;54079;44.540;18.784;2022-12-31T02:20:09;3.50;;;2.08;;
55776;SDS011;54079;44.540;18.784;2022-12-31T02:28:55;4.45;;;2.00;;
55776;SDS011;54079;44.540;18.784;2022-12-31T02:31:57;2.60;;;1.98;;
55776;SDS011;54079;44.540;18.784;2022-12-31T02:34:34;4.28;;;2.60;;
55776;SDS011;54079;44.540;18.784;2022-12-31T02:37:06;4.78;;;2.83;;
55776;SDS011;54079;44.540;18.784;2022-12-31T02:39:36;4.68;;;2.30;;
55776;SDS011;54079;44.540;18.784;2022-12-31T02:42:03;4.13;;;2.55;;
55776;SDS011;54079;44.540;18.784;2022-12-31T02:44:30;4.57;;;2.45;;
55776;SDS011;54079;44.540;18.784;2022-12-31T02:52:30;2.70;;;2.33;;
55776;SDS011;54079;44.540;18.784;2022-12-31T02:55:10;4.07;;;2.38;;
55776;SDS011;54079;44.540;18.784;2022-12-31T03:01:09;2.80;;;2.45;;
55776;SDS011;54079;44.540;18.784;2022-12-31T03:03:56;4.13;;;2.22;;
55776;SDS011;54079;44.540;18.784;2022-12-31T03:06:45;4.57;;;2.25;;
55776;SDS011;54079;44.540;18.784;2022-12-31T03:09:11;6.03;;;2.17;;
55776;SDS011;54079;44.540;18.784;2022-12-31T03:11:37;2.08;;;1.80;;
55776;SDS011;54079;44.540;18.784;2022-12-31T03:14:21;2.80;;;1.88;;
55776;SDS011;54079;44.540;18.784;2022-12-31T03:16:47;2.38;;;1.98;;
55776;SDS011;54079;44.540;18.784;2022-12-31T03:19:13;4.03;;;2.15;;
55776;SDS011;54079;44.540;18.784;2022-12-31T03:21:58;2.55;;;1.88;;
55776;SDS011;54079;44.540;18.784;2022-12-31T03:24:42;3.92;;;1.90;;
55776;SDS011;54079;44.540;18.784;2022-12-31T03:27:26;2.33;;;1.77;;
55776;SDS011;54079;44.540;18.784;2022-12-31T03:29:52;3.30;;;2.03;;
55776;SDS011;54079;44.540;18.784;2022-12-31T03:32:18;3.35;;;2.28;;
55776;SDS011;54079;44.540;18.784;2022-12-31T03:34:44;2.65;;;2.13;;
55776;SDS011;54079;44.540;18.784;2022-12-31T03:37:10;2.65;;;1.85;;
55776;SDS011;54079;44.540;18.784;2022-12-31T03:39:36;2.05;;;1.58;;
55776;SDS011;54079;44.540;18.784;2022-12-31T03:42:02;2.88;;;2.10;;
55776;SDS011;54079;44.540;18.784;2022-12-31T03:44:28;2.70;;;2.40;;
55776;SDS011;54079;44.540;18.784;2022-12-31T03:46:53;3.88;;;1.80;;
55776;SDS011;54079;44.540;18.784;2022-12-31T03:49:19;2.55;;;1.50;;
55776;SDS011;54079;44.540;18.784;2022-12-31T03:51:45;3.10;;;1.75;;
55776;SDS011;54079;44.540;18.784;2022-12-31T03:54:11;2.10;;;1.50;;
55776;SDS011;54079;44.540;18.784;2022-12-31T03:56:37;2.72;;;2.05;;
55776;SDS011;54079;44.540;18.784;2022-12-31T03:59:03;2.03;;;1.70;;
55776;SDS011;54079;44.540;18.784;2022-12-31T04:01:29;3.08;;;2.25;;
55776;SDS011;54079;44.540;18.784;2022-12-31T04:03:55;4.05;;;1.75;;
55776;SDS011;54079;44.540;18.784;2022-12-31T04:06:20;2.85;;;2.25;;
55776;SDS011;54079;44.540;18.784;2022-12-31T04:08:46;2.45;;;1.83;;
55776;SDS011;54079;44.540;18.784;2022-12-31T04:11:12;3.45;;;2.17;;
55776;SDS011;54079;44.540;18.784;2022-12-31T04:13:38;2.60;;;1.75;;
55776;SDS011;54079;44.540;18.784;2022-12-31T04:16:04;2.00;;;1.58;;
55776;SDS011;54079;44.540;18.784;2022-12-31T04:18:30;4.20;;;1.92;;
55776;SDS011;54079;44.540;18.784;2022-12-31T04:21:02;2.50;;;1.42;;
55776;SDS011;54079;44.540;18.784;2022-12-31T04:23:29;2.35;;;1.80;;
55776;SDS011;54079;44.540;18.784;2022-12-31T04:25:55;3.00;;;1.65;;
55776;SDS011;54079;44.540;18.784;2022-12-31T04:28:21;3.55;;;1.63;;
55776;SDS011;54079;44.540;18.784;2022-12-31T04:30:47;1.35;;;1.25;;
55776;SDS011;54079;44.540;18.784;2022-12-31T04:33:13;3.33;;;1.65;;
55776;SDS011;54079;44.540;18.784;2022-12-31T04:35:39;4.80;;;1.90;;
55776;SDS011;54079;44.540;18.784;2022-12-31T04:38:05;3.85;;;1.88;;
55776;SDS011;54079;44.540;18.784;2022-12-31T04:40:31;3.55;;;2.13;;
55776;SDS011;54079;44.540;18.784;2022-12-31T04:42:57;3.13;;;2.03;;
55776;SDS011;54079;44.540;18.784;2022-12-31T04:45:23;3.50;;;1.98;;
55776;SDS011;54079;44.540;18.784;2022-12-31T04:47:49;2.13;;;1.75;;
55776;SDS011;54079;44.540;18.784;2022-12-31T04:50:15;3.22;;;1.70;;
55776;SDS011;54079;44.540;18.784;2022-12-31T04:52:41;1.77;;;1.42;;
55776;SDS011;54079;44.540;18.784;2022-12-31T04:55:07;3.35;;;1.90;;
55776;SDS011;54079;44.540;18.784;2022-12-31T04:57:33;2.42;;;1.38;;
55776;SDS011;54079;44.540;18.784;2022-12-31T04:59:58;2.42;;;1.45;;
55776;SDS011;54079;44.540;18.784;2022-12-31T05:02:24;2.80;;;2.00;;
55776;SDS011;54079;44.540;18.784;2022-12-31T05:04:50;1.33;;;1.00;;
55776;SDS011;54079;44.540;18.784;2022-12-31T05:07:16;2.92;;;1.92;;
55776;SDS011;54079;44.540;18.784;2022-12-31T05:09:42;3.33;;;1.75;;
55776;SDS011;54079;44.540;18.784;2022-12-31T05:12:08;1.83;;;1.63;;
55776;SDS011;54079;44.540;18.784;2022-12-31T05:14:34;2.72;;;1.58;;
55776;SDS011;54079;44.540;18.784;2022-12-31T05:17:00;1.80;;;1.10;;
55776;SDS011;54079;44.540;18.784;2022-12-31T05:19:26;2.25;;;1.65;;
55776;SDS011;54079;44.540;18.784;2022-12-31T05:21:52;2.33;;;1.75;;
55776;SDS011;54079;44.540;18.784;2022-12-31T05:24:36;2.53;;;1.27;;
55776;SDS011;54079;44.540;18.784;2022-12-31T05:27:02;1.75;;;1.40;;
55776;SDS011;54079;44.540;18.784;2022-12-31T05:29:28;3.17;;;1.20;;
55776;SDS011;54079;44.540;18.784;2022-12-31T05:31:54;2.50;;;1.42;;
55776;SDS011;54079;44.540;18.784;2022-12-31T05:34:20;2.20;;;1.45;;
55776;SDS011;54079;44.540;18.784;2022-12-31T05:36:46;3.08;;;2.20;;
55776;SDS011;54079;44.540;18.784;2022-12-31T05:39:12;2.97;;;1.30;;
55776;SDS011;54079;44.540;18.784;2022-12-31T05:41:38;2.88;;;1.25;;
55776;SDS011;54079;44.540;18.784;2022-12-31T05:44:04;2.00;;;1.30;;
55776;SDS011;54079;44.540;18.784;2022-12-31T05:46:29;2.95;;;1.42;;
55776;SDS011;54079;44.540;18.784;2022-12-31T05:48:55;1.88;;;1.08;;
55776;SDS011;54079;44.540;18.784;2022-12-31T05:51:21;1.30;;;0.98;;
55776;SDS011;54079;44.540;18.784;2022-12-31T05:53:47;2.00;;;1.30;;
55776;SDS011;54079;44.540;18.784;2022-12-31T05:56:13;3.63;;;1.30;;
55776;SDS011;54079;44.540;18.784;2022-12-31T05:58:39;2.30;;;1.45;;
55776;SDS011;54079;44.540;18.784;2022-12-31T06:01:05;2.25;;;1.58;;
55776;SDS011;54079;44.540;18.784;2022-12-31T06:03:31;2.38;;;2.17;;
55776;SDS011;54079;44.540;18.784;2022-12-31T06:05:57;1.92;;;1.75;;
55776;SDS011;54079;44.540;18.784;2022-12-31T06:08:25;4.63;;;2.00;;
55776;SDS011;54079;44.540;18.784;2022-12-31T06:10:51;3.25;;;1.83;;
55776;SDS011;54079;44.540;18.784;2022-12-31T06:13:17;2.13;;;1.92;;
55776;SDS011;54079;44.540;18.784;2022-12-31T06:15:43;2.35;;;1.67;;
55776;SDS011;54079;44.540;18.784;2022-12-31T06:18:09;2.30;;;1.70;;
55776;SDS011;54079;44.540;18.784;2022-12-31T06:20:35;3.65;;;2.25;;
55776;SDS011;54079;44.540;18.784;2022-12-31T06:23:02;4.43;;;1.38;;
55776;SDS011;54079;44.540;18.784;2022-12-31T06:25:28;1.77;;;1.40;;
55776;SDS011;54079;44.540;18.784;2022-12-31T06:27:54;1.35;;;1.23;;
55776;SDS011;54079;44.540;18.784;2022-12-31T06:30:20;2.05;;;1.35;;
55776;SDS011;54079;44.540;18.784;2022-12-31T06:32:46;2.25;;;2.00;;
55776;SDS011;54079;44.540;18.784;2022-12-31T06:35:11;2.58;;;1.58;;
55776;SDS011;54079;44.540;18.784;2022-12-31T06:37:38;2.13;;;1.50;;
55776;SDS011;54079;44.540;18.784;2022-12-31T06:40:04;1.67;;;1.23;;
55776;SDS011;54079;44.540;18.784;2022-12-31T06:42:31;3.05;;;1.73;;
55776;SDS011;54079;44.540;18.784;2022-12-31T06:44:57;3.55;;;1.52;;
55776;SDS011;54079;44.540;18.784;2022-12-31T06:47:23;1.48;;;1.20;;
55776;SDS011;54079;44.540;18.784;2022-12-31T06:49:49;3.67;;;1.25;;
55776;SDS011;54079;44.540;18.784;2022-12-31T06:52:16;1.58;;;1.20;;
55776;SDS011;54079;44.540;18.784;2022-12-31T06:54:42;3.42;;;2.45;;
55776;SDS011;54079;44.540;18.784;2022-12-31T06:57:08;2.15;;;1.60;;
55776;SDS011;54079;44.540;18.784;2022-12-31T06:59:34;4.65;;;1.58;;
55776;SDS011;54079;44.540;18.784;2022-12-31T07:02:06;3.05;;;1.45;;
55776;SDS011;54079;44.540;18.784;2022-12-31T07:07:47;3.35;;;1.95;;
55776;SDS011;54079;44.540;18.784;2022-12-31T07:10:29;2.88;;;1.40;;
55776;SDS011;54079;44.540;18.784;2022-12-31T07:22:08;1.33;;;1.15;;
55776;SDS011;54079;44.540;18.784;2022-12-31T07:24:39;2.60;;;1.73;;
55776;SDS011;54079;44.540;18.784;2022-12-31T07:29:41;2.20;;;1.73;;
55776;SDS011;54079;44.540;18.784;2022-12-31T07:41:01;2.88;;;1.67;;
55776;SDS011;54079;44.540;18.784;2022-12-31T07:43:34;1.75;;;1.60;;
55776;SDS011;54079;44.540;18.784;2022-12-31T07:46:12;2.70;;;1.50;;
55776;SDS011;54079;44.540;18.784;2022-12-31T07:48:56;2.92;;;1.95;;
55776;SDS011;54079;44.540;18.784;2022-12-31T07:51:22;4.07;;;2.00;;
55776;SDS011;54079;44.540;18.784;2022-12-31T07:53:49;3.92;;;2.10;;
55776;SDS011;54079;44.540;18.784;2022-12-31T07:56:15;4.90;;;2.35;;
55776;SDS011;54079;44.540;18.784;2022-12-31T07:58:47;2.47;;;1.52;;
55776;SDS011;54079;44.540;18.784;2022-12-31T08:01:34;2.75;;;1.48;;
55776;SDS011;54079;44.540;18.784;2022-12-31T08:06:59;3.37;;;1.90;;
55776;SDS011;54079;44.540;18.784;2022-12-31T08:09:54;3.70;;;1.90;;
55776;SDS011;54079;44.540;18.784;2022-12-31T08:12:35;2.03;;;1.65;;
55776;SDS011;54079;44.540;18.784;2022-12-31T08:15:13;5.72;;;3.75;;
55776;SDS011;54079;44.540;18.784;2022-12-31T08:17:43;3.60;;;1.48;;
55776;SDS011;54079;44.540;18.784;2022-12-31T08:20:15;3.03;;;1.77;;
55776;SDS011;54079;44.540;18.784;2022-12-31T08:25:58;4.03;;;1.52;;
55776;SDS011;54079;44.540;18.784;2022-12-31T08:31:35;3.28;;;1.48;;
55776;SDS011;54079;44.540;18.784;2022-12-31T08:36:59;1.30;;;1.02;;
55776;SDS011;54079;44.540;18.784;2022-12-31T08:39:38;1.42;;;1.33;;
55776;SDS011;54079;44.540;18.784;2022-12-31T08:42:34;1.85;;;1.50;;
55776;SDS011;54079;44.540;18.784;2022-12-31T08:45:27;2.28;;;1.30;;
55776;SDS011;54079;44.540;18.784;2022-12-31T08:48:07;3.05;;;2.58;;
55776;SDS011;54079;44.540;18.784;2022-12-31T08:50:35;3.45;;;1.80;;
55776;SDS011;54079;44.540;18.784;2022-12-31T08:53:02;2.72;;;2.22;;
55776;SDS011;54079;44.540;18.784;2022-12-31T08:55:28;4.18;;;1.80;;
55776;SDS011;54079;44.540;18.784;2022-12-31T08:58:18;2.00;;;1.77;;
55776;SDS011;54079;44.540;18.784;2022-12-31T09:00:47;1.60;;;1.50;;
55776;SDS011;54079;44.540;18.784;2022-12-31T09:03:26;4.93;;;2.47;;
55776;SDS011;54079;44.540;18.784;2022-12-31T09:14:39;2.10;;;1.42;;
55776;SDS011;54079;44.540;18.784;2022-12-31T09:20:25;1.67;;;1.30;;
55776;SDS011;54079;44.540;18.784;2022-12-31T09:22:53;2.15;;;1.75;;
55776;SDS011;54079;44.540;18.784;2022-12-31T09:25:20;4.07;;;1.70;;
55776;SDS011;54079;44.540;18.784;2022-12-31T09:28:03;4.82;;;1.95;;
55776;SDS011;54079;44.540;18.784;2022-12-31T09:30:57;4.25;;;2.50;;
55776;SDS011;54079;44.540;18.784;2022-12-31T09:33:32;3.45;;;2.72;;
55776;SDS011;54079;44.540;18.784;2022-12-31T09:36:05;5.15;;;2.95;;
55776;SDS011;54079;44.540;18.784;2022-12-31T09:38:38;7.10;;;4.88;;
55776;SDS011;54079;44.540;18.784;2022-12-31T09:41:29;4.45;;;2.90;;
55776;SDS011;54079;44.540;18.784;2022-12-31T09:49:58;5.22;;;2.13;;
55776;SDS011;54079;44.540;18.784;2022-12-31T10:22:41;7.40;;;3.47;;
55776;SDS011;54079;44.540;18.784;2022-12-31T10:27:59;2.20;;;1.60;;
55776;SDS011;54079;44.540;18.784;2022-12-31T10:36:33;6.78;;;4.82;;
55776;SDS011;54079;44.540;18.784;2022-12-31T10:39:20;4.22;;;3.00;;
55776;SDS011;54079;44.540;18.784;2022-12-31T10:52:45;6.00;;;3.80;;
55776;SDS011;54079;44.540;18.784;2022-12-31T10:58:51;4.45;;;3.33;;
55776;SDS011;54079;44.540;18.784;2022-12-31T11:01:59;6.65;;;4.30;;
55776;SDS011;54079;44.540;18.784;2022-12-31T11:07:41;9.48;;;6.18;;
55776;SDS011;54079;44.540;18.784;2022-12-31T11:18:30;10.20;;;8.10;;
55776;SDS011;54079;44.540;18.784;2022-12-31T11:38:37;15.65;;;10.63;;
55776;SDS011;54079;44.540;18.784;2022-12-31T11:41:45;15.05;;;9.63;;
55776;SDS011;54079;44.540;18.784;2022-12-31T11:49:49;12.50;;;9.77;;
55776;SDS011;54079;44.540;18.784;2022-12-31T11:55:48;10.75;;;6.78;;
55776;SDS011;54079;44.540;18.784;2022-12-31T12:00:24;11.18;;;8.02;;
55776;SDS011;54079;44.540;18.784;2022-12-31T12:02:56;11.00;;;8.60;;
55776;SDS011;54079;44.540;18.784;2022-12-31T12:05:25;13.57;;;8.70;;
55776;SDS011;54079;44.540;18.784;2022-12-31T12:07:52;11.50;;;8.32;;
55776;SDS011;54079;44.540;18.784;2022-12-31T12:10:29;10.20;;;7.00;;
55776;SDS011;54079;44.540;18.784;2022-12-31T12:12:59;12.30;;;8.48;;
55776;SDS011;54079;44.540;18.784;2022-12-31T12:15:33;9.50;;;6.50;;
55776;SDS011;54079;44.540;18.784;2022-12-31T12:18:04;9.93;;;6.88;;
55776;SDS011;54079;44.540;18.784;2022-12-31T12:20:34;9.98;;;6.97;;
55776;SDS011;54079;44.540;18.784;2022-12-31T12:23:12;8.80;;;6.72;;
55776;SDS011;54079;44.540;18.784;2022-12-31T12:25:45;9.13;;;6.35;;
55776;SDS011;54079;44.540;18.784;2022-12-31T12:28:18;9.50;;;6.57;;
55776;SDS011;54079;44.540;18.784;2022-12-31T12:30:51;9.25;;;5.63;;
55776;SDS011;54079;44.540;18.784;2022-12-31T12:36:05;6.47;;;4.93;;
55776;SDS011;54079;44.540;18.784;2022-12-31T12:38:32;7.40;;;5.18;;
55776;SDS011;54079;44.540;18.784;2022-12-31T12:41:00;7.63;;;4.75;;
55776;SDS011;54079;44.540;18.784;2022-12-31T12:43:33;5.07;;;3.80;;
55776;SDS011;54079;44.540;18.784;2022-12-31T12:46:01;4.47;;;3.67;;
55776;SDS011;54079;44.540;18.784;2022-12-31T12:48:40;5.05;;;3.85;;
55776;SDS011;54079;44.540;18.784;2022-12-31T12:54:16;9.15;;;6.95;;
55776;SDS011;54079;44.540;18.784;2022-12-31T13:10:35;6.40;;;5.07;;
55776;SDS011;54079;44.540;18.784;2022-12-31T13:13:13;5.30;;;3.20;;
55776;SDS011;54079;44.540;18.784;2022-12-31T13:16:14;5.63;;;4.40;;
55776;SDS011;54079;44.540;18.784;2022-12-31T13:19:23;7.50;;;4.13;;
55776;SDS011;54079;44.540;18.784;2022-12-31T13:22:01;5.60;;;3.50;;
55776;SDS011;54079;44.540;18.784;2022-12-31T13:27:18;3.72;;;2.80;;
55776;SDS011;54079;44.540;18.784;2022-12-31T13:30:00;5.93;;;3.75;;
55776;SDS011;54079;44.540;18.784;2022-12-31T13:35:37;5.63;;;4.10;;
55776;SDS011;54079;44.540;18.784;2022-12-31T13:38:28;8.80;;;5.18;;
55776;SDS011;54079;44.540;18.784;2022-12-31T13:43:37;5.25;;;3.15;;
55776;SDS011;54079;44.540;18.784;2022-12-31T13:48:55;5.85;;;3.28;;
55776;SDS011;54079;44.540;18.784;2022-12-31T13:51:39;5.97;;;3.60;;
55776;SDS011;54079;44.540;18.784;2022-12-31T13:56:50;4.53;;;3.35;;
55776;SDS011;54079;44.540;18.784;2022-12-31T13:59:19;5.28;;;3.90;;
55776;SDS011;54079;44.540;18.784;2022-12-31T14:04:49;7.72;;;5.72;;
55776;SDS011;54079;44.540;18.784;2022-12-31T14:07:34;12.43;;;8.80;;
55776;SDS011;54079;44.540;18.784;2022-12-31T14:10:13;15.73;;;10.30;;
55776;SDS011;54079;44.540;18.784;2022-12-31T14:25:58;4.85;;;3.53;;
55776;SDS011;54079;44.540;18.784;2022-12-31T14:28:46;4.88;;;3.78;;
55776;SDS011;54079;44.540;18.784;2022-12-31T14:31:21;5.55;;;4.30;;
55776;SDS011;54079;44.540;18.784;2022-12-31T14:36:58;3.75;;;2.35;;
55776;SDS011;54079;44.540;18.784;2022-12-31T14:39:53;5.15;;;3.10;;
55776;SDS011;54079;44.540;18.784;2022-12-31T14:50:49;2.88;;;2.53;;
55776;SDS011;54079;44.540;18.784;2022-12-31T14:53:25;6.97;;;3.10;;
55776;SDS011;54079;44.540;18.784;2022-12-31T14:56:02;3.92;;;2.50;;
55776;SDS011;54079;44.540;18.784;2022-12-31T14:58:54;7.15;;;3.30;;
55776;SDS011;54079;44.540;18.784;2022-12-31T15:01:22;4.88;;;3.20;;
55776;SDS011;54079;44.540;18.784;2022-12-31T15:03:50;5.20;;;3.65;;
55776;SDS011;54079;44.540;18.784;2022-12-31T15:09:04;6.13;;;3.75;;
